Time;durP1;ratioP1;P1;durP2;ratioP2;P2;SDS_P1;SDS_P2;PMS_P1;PMS_P2;Temp;Humidity;BMP_temperature;BMP_pressure;BME280_temperature;BME280_humidity;BME280_pressure;Samples;Min_cycle;Max_cycle;Signal;HPM_P1;HPM_P2
2021/03/12 00:01:00;;;;;;;40.25;25.90;;;;;;;;;;6278891;28;20082;-73
2021/03/12 00:04:01;;;;;;;38.85;25.80;;;;;;;;;;6274066;28;20068;-72
2021/03/12 00:07:03;;;;;;;42.75;27.45;;;;;;;;;;6276255;28;20767;-72
2021/03/12 00:10:09;;;;;;;38.90;25.15;;;;;;;;;;6250294;28;20037;-72
2021/03/12 00:13:10;;;;;;;48.55;26.15;;;;;;;;;;6251504;28;20048;-72
2021/03/12 00:16:13;;;;;;;44.05;25.88;;;;;;;;;;6253953;28;20095;-70
2021/03/12 00:19:14;;;;;;;50.67;29.05;;;;;;;;;;6257422;28;20091;-71
2021/03/12 00:22:15;;;;;;;52.85;29.63;;;;;;;;;;6252913;28;20626;-70
2021/03/12 00:25:20;;;;;;;45.70;27.35;;;;;;;;;;6250539;28;20050;-72
2021/03/12 00:28:21;;;;;;;48.08;27.40;;;;;;;;;;6243705;28;20127;-71
2021/03/12 00:31:23;;;;;;;43.75;26.70;;;;;;;;;;6236663;28;20568;-74
2021/03/12 00:34:24;;;;;;;47.50;27.48;;;;;;;;;;6230013;28;20181;-71
2021/03/12 00:37:25;;;;;;;47.78;29.10;;;;;;;;;;6233806;28;20120;-71
2021/03/12 00:40:29;;;;;;;42.92;26.92;;;;;;;;;;6232268;28;20068;-71
2021/03/12 00:43:30;;;;;;;44.78;28.38;;;;;;;;;;6226872;28;20058;-74
2021/03/12 00:46:32;;;;;;;51.33;28.75;;;;;;;;;;6245869;28;20136;-72
2021/03/12 00:49:33;;;;;;;49.35;30.10;;;;;;;;;;6239335;28;20461;-72
2021/03/12 00:52:34;;;;;;;47.88;28.90;;;;;;;;;;6231540;28;20117;-71
2021/03/12 00:55:36;;;;;;;44.15;26.83;;;;;;;;;;6233227;28;20148;-71
2021/03/12 00:58:37;;;;;;;45.08;28.98;;;;;;;;;;6233431;28;20051;-72
2021/03/12 01:01:39;;;;;;;48.88;28.05;;;;;;;;;;6227459;28;20053;-74
2021/03/12 01:04:40;;;;;;;44.95;29.02;;;;;;;;;;6238241;28;20054;-74
2021/03/12 01:07:42;;;;;;;42.10;27.58;;;;;;;;;;6231846;28;20137;-73
2021/03/12 01:10:43;;;;;;;42.42;27.77;;;;;;;;;;6228355;28;20058;-72
2021/03/12 01:13:44;;;;;;;45.05;28.83;;;;;;;;;;6237987;28;20049;-74
2021/03/12 01:16:46;;;;;;;40.63;29.08;;;;;;;;;;6236691;28;20049;-72
2021/03/12 01:19:47;;;;;;;48.65;29.13;;;;;;;;;;6235541;28;20136;-72
2021/03/12 01:22:48;;;;;;;48.00;31.08;;;;;;;;;;6242028;28;20132;-72
2021/03/12 01:25:49;;;;;;;47.70;29.65;;;;;;;;;;6249332;28;20513;-72
2021/03/12 01:28:51;;;;;;;52.20;28.55;;;;;;;;;;6289008;28;20510;-72
2021/03/12 01:31:53;;;;;;;44.55;30.65;;;;;;;;;;6277811;28;20182;-72
2021/03/12 01:34:54;;;;;;;54.78;31.95;;;;;;;;;;6257115;28;20078;-72
2021/03/12 01:37:55;;;;;;;45.30;29.80;;;;;;;;;;6257080;28;20077;-74
2021/03/12 01:40:56;;;;;;;45.60;30.75;;;;;;;;;;6272894;28;20043;-72
2021/03/12 01:43:57;;;;;;;49.35;31.67;;;;;;;;;;6289030;28;20090;-72
2021/03/12 01:46:59;;;;;;;49.22;30.42;;;;;;;;;;6288128;28;20049;-71
2021/03/12 01:50:00;;;;;;;52.13;30.95;;;;;;;;;;6278742;28;20048;-75
2021/03/12 01:53:02;;;;;;;49.22;30.50;;;;;;;;;;6287678;28;20467;-73
2021/03/12 01:56:05;;;;;;;53.08;32.30;;;;;;;;;;6286862;28;20044;-74
2021/03/12 01:59:06;;;;;;;53.78;31.77;;;;;;;;;;6287332;28;20170;-71
2021/03/12 02:05:16;;;;;;;49.58;28.05;;;;;;;;;;6167690;28;20057;-72
2021/03/12 02:08:17;;;;;;;49.58;28.95;;;;;;;;;;6181867;28;20059;-74
2021/03/12 02:11:19;;;;;;;46.22;28.63;;;;;;;;;;6179881;28;20970;-73
2021/03/12 02:14:25;;;;;;;41.65;26.90;;;;;;;;;;6188734;28;20046;-72
2021/03/12 02:17:28;;;;;;;46.20;27.42;;;;;;;;;;6182270;28;20165;-72
2021/03/12 02:20:40;;;;;;;47.67;28.15;;;;;;;;;;6179232;28;20042;-73
2021/03/12 02:23:57;;;;;;;41.92;27.90;;;;;;;;;;6182845;28;20514;-72
2021/03/12 02:27:03;;;;;;;47.85;28.80;;;;;;;;;;6195015;28;20607;-73
2021/03/12 02:30:06;;;;;;;45.70;27.95;;;;;;;;;;6182223;28;20085;-71
2021/03/12 02:33:08;;;;;;;44.53;28.52;;;;;;;;;;6177582;28;20125;-72
2021/03/12 02:36:09;;;;;;;43.40;28.38;;;;;;;;;;6185915;28;20046;-72
2021/03/12 02:39:12;;;;;;;45.42;28.98;;;;;;;;;;6180986;28;20121;-72
2021/03/12 02:42:15;;;;;;;46.47;28.40;;;;;;;;;;6186331;28;20078;-72
2021/03/12 02:45:19;;;;;;;41.83;27.90;;;;;;;;;;6185148;28;20050;-72
2021/03/12 02:48:20;;;;;;;44.17;28.88;;;;;;;;;;6184215;28;20070;-72
2021/03/12 02:51:22;;;;;;;40.95;28.55;;;;;;;;;;6192382;28;20062;-72
2021/03/12 02:54:23;;;;;;;43.80;28.30;;;;;;;;;;6191980;28;20129;-74
2021/03/12 02:57:25;;;;;;;42.22;27.70;;;;;;;;;;6194759;28;20072;-72
2021/03/12 03:00:26;;;;;;;46.90;29.48;;;;;;;;;;6187809;28;20138;-72
2021/03/12 03:03:28;;;;;;;47.30;28.77;;;;;;;;;;6169698;28;20150;-72
2021/03/12 03:06:29;;;;;;;40.80;28.33;;;;;;;;;;6154103;28;20764;-72
2021/03/12 03:09:31;;;;;;;45.20;28.77;;;;;;;;;;6159856;28;20153;-73
2021/03/12 03:12:33;;;;;;;42.28;27.73;;;;;;;;;;6165236;28;20173;-74
2021/03/12 03:15:35;;;;;;;46.72;27.80;;;;;;;;;;6169833;28;20061;-72
2021/03/12 03:18:37;;;;;;;47.10;29.27;;;;;;;;;;6161257;28;20126;-72
2021/03/12 03:21:38;;;;;;;48.53;30.13;;;;;;;;;;6155103;28;20133;-75
2021/03/12 03:24:39;;;;;;;47.10;30.15;;;;;;;;;;6160150;28;20039;-72
2021/03/12 03:27:42;;;;;;;43.47;30.13;;;;;;;;;;6163950;28;20113;-73
2021/03/12 03:30:43;;;;;;;50.83;32.88;;;;;;;;;;6155056;28;20078;-74
2021/03/12 03:33:44;;;;;;;54.63;32.63;;;;;;;;;;6147196;28;20051;-72
2021/03/12 03:36:46;;;;;;;50.72;33.83;;;;;;;;;;6161584;28;20039;-72
2021/03/12 03:39:47;;;;;;;49.60;33.63;;;;;;;;;;6168623;28;20078;-72
2021/03/12 03:42:50;;;;;;;56.70;35.40;;;;;;;;;;6155427;28;20047;-72
2021/03/12 03:45:52;;;;;;;55.10;34.57;;;;;;;;;;6166834;28;20157;-73
2021/03/12 03:48:54;;;;;;;59.08;35.00;;;;;;;;;;6170617;28;20573;-72
2021/03/12 03:51:55;;;;;;;53.22;36.10;;;;;;;;;;6159742;28;20043;-72
2021/03/12 03:54:57;;;;;;;53.65;33.42;;;;;;;;;;6158573;28;20074;-75
2021/03/12 03:58:00;;;;;;;52.53;34.88;;;;;;;;;;6148161;28;20055;-72
2021/03/12 04:01:02;;;;;;;53.60;35.50;;;;;;;;;;6158404;28;20043;-74
2021/03/12 04:04:04;;;;;;;59.40;37.67;;;;;;;;;;6161328;28;20409;-73
2021/03/12 04:07:07;;;;;;;55.40;37.28;;;;;;;;;;6167416;28;20125;-72
2021/03/12 04:10:10;;;;;;;58.45;37.00;;;;;;;;;;6161467;28;20061;-72
2021/03/12 04:13:12;;;;;;;59.15;36.28;;;;;;;;;;6166665;28;20047;-72
2021/03/12 04:16:13;;;;;;;62.53;37.13;;;;;;;;;;6167441;28;20521;-72
2021/03/12 04:19:15;;;;;;;60.45;38.67;;;;;;;;;;6162734;28;20141;-73
2021/03/12 04:22:16;;;;;;;62.30;39.60;;;;;;;;;;6179420;28;20141;-73
2021/03/12 04:25:18;;;;;;;61.00;38.85;;;;;;;;;;6166170;28;20149;-72
2021/03/12 04:28:20;;;;;;;61.40;38.67;;;;;;;;;;6168503;28;20074;-73
2021/03/12 04:31:22;;;;;;;55.33;37.30;;;;;;;;;;6178015;28;20126;-72
2021/03/12 04:34:23;;;;;;;58.55;36.65;;;;;;;;;;6161468;28;20131;-73
2021/03/12 04:37:24;;;;;;;56.13;36.83;;;;;;;;;;6166645;28;20133;-72
2021/03/12 04:40:25;;;;;;;57.58;37.08;;;;;;;;;;6167058;28;20524;-73
2021/03/12 04:43:27;;;;;;;59.97;36.88;;;;;;;;;;6166178;28;20083;-72
2021/03/12 04:46:28;;;;;;;55.78;36.03;;;;;;;;;;6156467;28;20178;-73
2021/03/12 04:49:30;;;;;;;65.15;36.20;;;;;;;;;;6161532;28;20135;-72
2021/03/12 04:52:31;;;;;;;58.55;35.95;;;;;;;;;;6165831;28;20166;-72
2021/03/12 04:55:33;;;;;;;59.92;36.42;;;;;;;;;;6179276;28;20050;-72
2021/03/12 04:58:36;;;;;;;56.95;35.95;;;;;;;;;;6156779;28;20204;-72
2021/03/12 05:01:38;;;;;;;53.83;35.03;;;;;;;;;;6159057;28;20130;-72
2021/03/12 05:04:40;;;;;;;56.95;35.78;;;;;;;;;;6182918;28;20073;-72
2021/03/12 05:07:42;;;;;;;52.92;35.33;;;;;;;;;;6199486;28;20050;-72
2021/03/12 05:10:54;;;;;;;57.38;34.17;;;;;;;;;;6192248;28;20085;-72
2021/03/12 05:13:56;;;;;;;57.65;35.13;;;;;;;;;;6194199;28;20485;-72
2021/03/12 05:16:57;;;;;;;57.92;34.65;;;;;;;;;;6189152;28;20104;-72
2021/03/12 05:19:58;;;;;;;58.58;35.58;;;;;;;;;;6187435;28;20172;-72
2021/03/12 05:22:59;;;;;;;51.35;34.13;;;;;;;;;;6182475;28;20047;-73
2021/03/12 05:26:00;;;;;;;58.97;35.55;;;;;;;;;;6188370;28;20077;-72
2021/03/12 05:29:02;;;;;;;49.40;33.22;;;;;;;;;;6187916;28;20168;-72
2021/03/12 05:32:04;;;;;;;51.03;33.78;;;;;;;;;;6191299;28;20661;-71
2021/03/12 05:35:06;;;;;;;55.83;33.85;;;;;;;;;;6184463;28;20077;-71
2021/03/12 05:38:07;;;;;;;54.33;35.20;;;;;;;;;;6182395;28;20046;-71
2021/03/12 05:41:09;;;;;;;56.72;34.03;;;;;;;;;;6185241;28;20064;-73
2021/03/12 05:44:11;;;;;;;56.13;33.65;;;;;;;;;;6178538;28;20093;-72
2021/03/12 05:47:13;;;;;;;55.60;33.17;;;;;;;;;;6185087;28;20193;-72
2021/03/12 05:50:14;;;;;;;54.70;34.75;;;;;;;;;;6187320;28;20078;-71
2021/03/12 05:53:16;;;;;;;61.72;34.75;;;;;;;;;;6180866;28;20068;-73
2021/03/12 05:56:17;;;;;;;58.28;33.60;;;;;;;;;;6184315;28;20078;-72
2021/03/12 05:59:19;;;;;;;58.40;35.42;;;;;;;;;;6183018;28;20113;-74
2021/03/12 06:02:21;;;;;;;58.35;35.30;;;;;;;;;;6174655;28;20342;-72
2021/03/12 06:05:23;;;;;;;53.92;34.63;;;;;;;;;;6161057;28;20050;-73
2021/03/12 06:08:24;;;;;;;61.05;35.15;;;;;;;;;;6157464;28;20051;-72
2021/03/12 06:11:25;;;;;;;59.05;35.13;;;;;;;;;;6160982;28;20061;-72
2021/03/12 06:14:50;;;;;;;58.58;35.60;;;;;;;;;;6156470;28;20510;-73
2021/03/12 06:17:51;;;;;;;59.28;34.83;;;;;;;;;;6158687;28;20051;-75
2021/03/12 06:20:52;;;;;;;55.83;34.80;;;;;;;;;;6153044;28;20129;-74
2021/03/12 06:23:53;;;;;;;54.28;34.38;;;;;;;;;;6163425;28;20050;-72
2021/03/12 06:26:55;;;;;;;58.35;36.10;;;;;;;;;;6148117;28;20074;-71
2021/03/12 06:30:00;;;;;;;56.10;34.40;;;;;;;;;;6160666;28;20036;-71
2021/03/12 06:33:01;;;;;;;58.80;35.50;;;;;;;;;;6164105;28;20050;-71
2021/03/12 06:36:04;;;;;;;52.13;35.13;;;;;;;;;;6165111;28;20134;-72
2021/03/12 06:39:05;;;;;;;57.78;37.10;;;;;;;;;;6162449;28;20558;-72
2021/03/12 06:42:07;;;;;;;57.53;36.17;;;;;;;;;;6165012;28;20589;-77
2021/03/12 06:45:11;;;;;;;55.55;36.58;;;;;;;;;;6157647;28;20494;-74
2021/03/12 06:48:16;;;;;;;61.92;36.72;;;;;;;;;;6158047;28;20139;-73
2021/03/12 06:51:17;;;;;;;59.30;37.28;;;;;;;;;;6164705;28;20118;-74
2021/03/12 06:54:18;;;;;;;62.05;38.10;;;;;;;;;;6167505;28;20063;-73
2021/03/12 06:57:20;;;;;;;59.45;36.90;;;;;;;;;;6163078;28;20178;-72
2021/03/12 07:00:31;;;;;;;57.22;37.38;;;;;;;;;;6166317;28;20137;-73
2021/03/12 07:03:34;;;;;;;60.35;37.83;;;;;;;;;;6177316;28;20084;-72
2021/03/12 07:06:42;;;;;;;67.05;38.08;;;;;;;;;;6182999;28;20050;-77
2021/03/12 07:09:56;;;;;;;60.08;38.50;;;;;;;;;;6181284;28;20053;-71
2021/03/12 07:12:58;;;;;;;65.57;39.28;;;;;;;;;;6185210;28;20046;-70
2021/03/12 07:16:00;;;;;;;60.20;40.22;;;;;;;;;;6188520;28;20117;-73
2021/03/12 07:19:01;;;;;;;60.63;39.33;;;;;;;;;;6200971;28;20077;-72
2021/03/12 07:22:02;;;;;;;70.72;41.10;;;;;;;;;;6192314;28;20565;-73
2021/03/12 07:25:05;;;;;;;67.05;40.42;;;;;;;;;;6185368;28;20053;-73
2021/03/12 07:28:07;;;;;;;58.53;40.05;;;;;;;;;;6193076;28;20140;-73
2021/03/12 07:31:11;;;;;;;57.10;39.40;;;;;;;;;;6185627;28;20125;-76
2021/03/12 07:34:16;;;;;;;57.53;40.22;;;;;;;;;;6186436;28;20050;-74
2021/03/12 07:37:19;;;;;;;63.63;41.10;;;;;;;;;;6182105;28;20473;-73
2021/03/12 07:40:20;;;;;;;60.35;41.28;;;;;;;;;;6195708;28;20173;-73
2021/03/12 07:43:22;;;;;;;65.43;41.55;;;;;;;;;;6186677;28;21446;-72
2021/03/12 07:46:27;;;;;;;60.08;40.65;;;;;;;;;;6182330;28;20043;-73
2021/03/12 07:49:35;;;;;;;64.70;42.38;;;;;;;;;;6184972;28;20399;-72
2021/03/12 07:52:49;;;;;;;59.95;41.53;;;;;;;;;;6185299;28;20149;-73
2021/03/12 07:55:51;;;;;;;62.25;41.67;;;;;;;;;;6184227;28;20042;-73
2021/03/12 07:58:57;;;;;;;63.47;41.55;;;;;;;;;;6183363;28;20050;-73
2021/03/12 08:01:58;;;;;;;57.60;40.05;;;;;;;;;;6183624;28;20433;-73
2021/03/12 08:04:59;;;;;;;62.35;40.15;;;;;;;;;;6160895;28;20183;-72
2021/03/12 08:08:01;;;;;;;59.10;40.30;;;;;;;;;;6163672;28;20150;-75
2021/03/12 08:11:19;;;;;;;55.45;38.47;;;;;;;;;;6166192;28;20077;-72
2021/03/12 08:14:21;;;;;;;52.47;37.63;;;;;;;;;;6164784;28;20047;-72
2021/03/12 08:17:23;;;;;;;54.60;37.70;;;;;;;;;;6164302;28;20444;-71
2021/03/12 08:20:29;;;;;;;54.88;39.42;;;;;;;;;;6166409;28;20126;-75
2021/03/12 08:23:32;;;;;;;51.60;35.85;;;;;;;;;;6162613;28;20059;-76
2021/03/12 08:26:50;;;;;;;56.10;37.67;;;;;;;;;;6162540;28;20503;-71
2021/03/12 08:29:51;;;;;;;55.55;37.42;;;;;;;;;;6155072;28;20051;-73
2021/03/12 08:32:53;;;;;;;57.92;37.97;;;;;;;;;;6164974;28;20063;-73
2021/03/12 08:35:56;;;;;;;51.38;36.22;;;;;;;;;;6163562;28;20055;-72
2021/03/12 08:38:57;;;;;;;54.42;37.38;;;;;;;;;;6170587;28;20485;-72
2021/03/12 08:41:58;;;;;;;56.83;37.03;;;;;;;;;;6161988;28;20450;-72
2021/03/12 08:44:59;;;;;;;51.80;36.28;;;;;;;;;;6170313;28;20476;-74
2021/03/12 08:48:09;;;;;;;55.55;37.78;;;;;;;;;;6176198;28;20558;-75
2021/03/12 08:51:13;;;;;;;49.58;35.58;;;;;;;;;;6169721;28;20559;-75
2021/03/12 08:54:14;;;;;;;47.53;34.28;;;;;;;;;;6176586;28;20050;-73
2021/03/12 08:57:20;;;;;;;51.25;38.55;;;;;;;;;;6171028;28;20046;-73
2021/03/12 09:00:22;;;;;;;53.83;38.75;;;;;;;;;;6165955;28;20569;-72
2021/03/12 09:03:27;;;;;;;53.90;38.90;;;;;;;;;;6163194;28;20159;-75
2021/03/12 09:06:30;;;;;;;46.63;35.67;;;;;;;;;;6168464;28;20147;-75
2021/03/12 09:09:31;;;;;;;50.60;35.45;;;;;;;;;;6158423;28;20058;-73
2021/03/12 09:12:33;;;;;;;55.25;37.95;;;;;;;;;;6164904;28;20046;-73
2021/03/12 09:15:34;;;;;;;46.78;33.83;;;;;;;;;;6151158;28;20090;-73
2021/03/12 09:18:38;;;;;;;34.30;24.73;;;;;;;;;;6170246;28;20133;-73
2021/03/12 09:21:39;;;;;;;24.77;17.50;;;;;;;;;;6169117;28;20057;-75
2021/03/12 09:24:51;;;;;;;21.05;13.32;;;;;;;;;;6168304;28;20065;-73
2021/03/12 09:28:01;;;;;;;25.15;17.63;;;;;;;;;;6165930;28;20178;-74
2021/03/12 09:31:03;;;;;;;26.90;19.13;;;;;;;;;;6169464;28;20137;-72
2021/03/12 09:34:06;;;;;;;25.92;17.75;;;;;;;;;;6170664;28;20169;-72
2021/03/12 09:37:07;;;;;;;18.65;12.90;;;;;;;;;;6165893;28;20086;-72
2021/03/12 09:40:09;;;;;;;28.13;18.02;;;;;;;;;;6162736;28;20118;-72
2021/03/12 09:43:11;;;;;;;28.40;17.08;;;;;;;;;;6166317;28;20578;-74
2021/03/12 09:46:15;;;;;;;27.58;18.23;;;;;;;;;;6171867;28;20066;-72
2021/03/12 09:49:20;;;;;;;30.90;20.27;;;;;;;;;;6165998;28;20086;-73
2021/03/12 09:52:22;;;;;;;34.88;23.58;;;;;;;;;;6164001;28;20059;-72
2021/03/12 09:55:24;;;;;;;32.22;22.38;;;;;;;;;;6169113;28;20050;-75
2021/03/12 09:58:27;;;;;;;31.08;22.73;;;;;;;;;;6169257;28;20473;-73
2021/03/12 10:01:35;;;;;;;35.37;24.07;;;;;;;;;;6171026;28;20058;-73
2021/03/12 10:04:38;;;;;;;34.78;25.23;;;;;;;;;;6184997;28;20049;-75
2021/03/12 10:07:41;;;;;;;34.60;25.90;;;;;;;;;;6185319;28;20057;-72
2021/03/12 10:10:42;;;;;;;34.10;24.92;;;;;;;;;;6188803;28;20054;-71
2021/03/12 10:13:43;;;;;;;31.92;23.88;;;;;;;;;;6185419;28;20136;-73
2021/03/12 10:16:44;;;;;;;29.98;20.75;;;;;;;;;;6183925;28;20193;-72
2021/03/12 10:19:50;;;;;;;25.73;19.17;;;;;;;;;;6199475;28;20038;-72
2021/03/12 10:22:53;;;;;;;21.35;16.65;;;;;;;;;;6198863;28;20046;-72
2021/03/12 10:25:54;;;;;;;23.65;17.00;;;;;;;;;;6184142;28;20429;-72
2021/03/12 10:28:55;;;;;;;25.58;17.75;;;;;;;;;;6186908;28;20054;-72
2021/03/12 10:31:56;;;;;;;29.95;17.80;;;;;;;;;;6188813;28;20123;-71
2021/03/12 10:35:00;;;;;;;29.88;20.30;;;;;;;;;;6187013;28;20074;-72
2021/03/12 10:38:13;;;;;;;23.17;18.77;;;;;;;;;;6184549;28;20046;-71
2021/03/12 10:41:17;;;;;;;24.05;19.80;;;;;;;;;;6189226;28;20077;-71
2021/03/12 10:44:18;;;;;;;24.13;17.90;;;;;;;;;;6189356;28;20046;-71
2021/03/12 10:47:20;;;;;;;21.70;17.92;;;;;;;;;;6192505;28;20056;-72
2021/03/12 10:50:23;;;;;;;24.23;18.10;;;;;;;;;;6186334;28;20116;-72
2021/03/12 10:53:24;;;;;;;25.77;18.92;;;;;;;;;;6185470;28;20066;-73
2021/03/12 10:56:26;;;;;;;29.88;18.38;;;;;;;;;;6188590;28;20172;-72
2021/03/12 10:59:28;;;;;;;23.85;17.42;;;;;;;;;;6177335;28;20133;-74
2021/03/12 11:02:36;;;;;;;20.00;16.63;;;;;;;;;;6203151;28;20046;-72
2021/03/12 11:05:38;;;;;;;21.75;16.27;;;;;;;;;;6190137;28;20125;-72
2021/03/12 11:08:40;;;;;;;20.80;15.10;;;;;;;;;;6182151;28;20051;-72
2021/03/12 11:11:43;;;;;;;16.88;14.80;;;;;;;;;;6188529;28;20516;-73
2021/03/12 11:14:44;;;;;;;21.80;14.57;;;;;;;;;;6187414;28;20054;-72
2021/03/12 11:17:46;;;;;;;20.90;15.95;;;;;;;;;;6183475;28;20093;-73
2021/03/12 11:20:48;;;;;;;19.48;15.55;;;;;;;;;;6188643;28;20543;-72
2021/03/12 11:23:49;;;;;;;22.40;15.93;;;;;;;;;;6184687;28;20046;-75
2021/03/12 11:26:50;;;;;;;20.75;16.13;;;;;;;;;;6190420;28;20050;-74
2021/03/12 11:29:51;;;;;;;23.80;16.48;;;;;;;;;;6188323;28;20094;-72
2021/03/12 11:32:52;;;;;;;21.30;16.63;;;;;;;;;;6180340;28;20420;-76
2021/03/12 11:35:55;;;;;;;20.98;16.65;;;;;;;;;;6184512;28;20050;-74
2021/03/12 11:38:56;;;;;;;22.83;17.08;;;;;;;;;;6190134;28;20074;-71
2021/03/12 11:41:57;;;;;;;22.70;17.55;;;;;;;;;;6188573;28;20448;-71
2021/03/12 11:44:58;;;;;;;18.17;16.27;;;;;;;;;;6189015;28;20046;-71
2021/03/12 11:48:02;;;;;;;19.13;15.60;;;;;;;;;;6196811;28;20060;-71
2021/03/12 11:51:05;;;;;;;20.02;15.25;;;;;;;;;;6192109;28;20069;-72
2021/03/12 11:54:06;;;;;;;19.35;15.80;;;;;;;;;;6189206;28;20137;-72
2021/03/12 11:57:07;;;;;;;22.58;15.55;;;;;;;;;;6186782;28;20050;-72
2021/03/12 12:00:12;;;;;;;17.35;15.55;;;;;;;;;;6178358;28;20277;-72
2021/03/12 12:03:14;;;;;;;18.63;16.08;;;;;;;;;;6177013;28;20062;-74
2021/03/12 12:06:16;;;;;;;20.10;16.83;;;;;;;;;;6161625;28;20051;-73
2021/03/12 12:09:17;;;;;;;24.95;17.58;;;;;;;;;;6156084;28;20076;-72
2021/03/12 12:12:19;;;;;;;18.55;16.27;;;;;;;;;;6153361;28;20061;-73
2021/03/12 12:15:21;;;;;;;21.17;15.93;;;;;;;;;;6158094;28;20047;-74
2021/03/12 12:18:22;;;;;;;19.35;15.98;;;;;;;;;;6159386;28;20074;-74
2021/03/12 12:21:24;;;;;;;20.67;15.07;;;;;;;;;;6156177;28;20781;-73
2021/03/12 12:24:25;;;;;;;19.52;16.58;;;;;;;;;;6155175;28;20601;-73
2021/03/12 12:27:26;;;;;;;18.38;16.00;;;;;;;;;;6151704;28;20055;-72
2021/03/12 12:30:28;;;;;;;19.85;15.00;;;;;;;;;;6166658;28;20129;-73
2021/03/12 12:33:30;;;;;;;20.50;16.30;;;;;;;;;;6175556;28;20079;-76
2021/03/12 12:36:33;;;;;;;20.80;15.13;;;;;;;;;;6166292;28;20082;-73
2021/03/12 12:39:34;;;;;;;18.00;16.10;;;;;;;;;;6165936;28;20129;-74
2021/03/12 12:42:35;;;;;;;21.05;17.40;;;;;;;;;;6172546;28;20049;-75
2021/03/12 12:45:38;;;;;;;21.17;18.08;;;;;;;;;;6165501;28;20159;-76
2021/03/12 12:48:40;;;;;;;23.13;18.15;;;;;;;;;;6153369;28;20053;-75
2021/03/12 12:51:44;;;;;;;25.08;19.08;;;;;;;;;;6169420;28;20071;-76
2021/03/12 12:54:45;;;;;;;21.00;18.13;;;;;;;;;;6161338;28;20061;-74
2021/03/12 12:57:46;;;;;;;23.02;17.98;;;;;;;;;;6161924;28;20924;-75
2021/03/12 13:00:52;;;;;;;22.80;18.33;;;;;;;;;;6170297;28;20086;-74
2021/03/12 13:03:54;;;;;;;23.38;19.10;;;;;;;;;;6166769;28;20047;-73
2021/03/12 13:06:56;;;;;;;22.98;17.05;;;;;;;;;;6171044;28;20066;-75
2021/03/12 13:09:59;;;;;;;24.35;19.95;;;;;;;;;;6168254;28;20502;-75
2021/03/12 13:13:00;;;;;;;27.70;18.85;;;;;;;;;;6176264;28;20050;-75
2021/03/12 13:16:02;;;;;;;25.00;18.63;;;;;;;;;;6174056;28;20085;-77
2021/03/12 13:19:06;;;;;;;24.13;17.13;;;;;;;;;;6172048;28;20043;-74
2021/03/12 13:22:08;;;;;;;21.27;16.98;;;;;;;;;;6175435;28;20506;-74
2021/03/12 13:25:10;;;;;;;22.77;16.88;;;;;;;;;;6166063;28;20083;-74
2021/03/12 13:28:14;;;;;;;20.35;15.95;;;;;;;;;;6165778;28;20462;-75
2021/03/12 13:31:15;;;;;;;21.00;15.90;;;;;;;;;;6175542;28;20064;-74
2021/03/12 13:34:17;;;;;;;19.60;16.40;;;;;;;;;;6169035;28;20556;-74
2021/03/12 13:37:19;;;;;;;21.25;17.05;;;;;;;;;;6171669;28;20062;-74
2021/03/12 13:40:21;;;;;;;19.23;15.27;;;;;;;;;;6171711;28;20046;-74
2021/03/12 13:43:22;;;;;;;21.88;16.13;;;;;;;;;;6165407;28;20413;-73
2021/03/12 13:46:23;;;;;;;22.85;15.80;;;;;;;;;;6161768;28;20482;-72
2021/03/12 13:49:25;;;;;;;20.75;16.38;;;;;;;;;;6165008;28;20478;-72
2021/03/12 13:52:27;;;;;;;20.67;14.95;;;;;;;;;;6171352;28;20059;-74
2021/03/12 13:55:28;;;;;;;21.05;15.77;;;;;;;;;;6169442;28;20073;-76
2021/03/12 13:58:30;;;;;;;21.58;15.25;;;;;;;;;;6167757;28;20423;-71
2021/03/12 14:01:31;;;;;;;21.42;15.38;;;;;;;;;;6168549;28;20087;-72
2021/03/12 14:04:32;;;;;;;27.90;17.05;;;;;;;;;;6168764;28;20066;-73
2021/03/12 14:07:35;;;;;;;21.45;16.58;;;;;;;;;;6169585;28;20054;-73
2021/03/12 14:10:36;;;;;;;21.92;16.65;;;;;;;;;;6168631;28;20062;-71
2021/03/12 14:13:37;;;;;;;24.17;15.70;;;;;;;;;;6164453;28;20101;-72
2021/03/12 14:16:38;;;;;;;20.67;15.50;;;;;;;;;;6174812;28;20560;-74
2021/03/12 14:19:41;;;;;;;22.00;15.82;;;;;;;;;;6156602;28;20544;-71
2021/03/12 14:22:43;;;;;;;22.50;14.32;;;;;;;;;;6164477;28;20045;-71
2021/03/12 14:25:44;;;;;;;21.27;15.35;;;;;;;;;;6161019;28;20066;-72
2021/03/12 14:28:45;;;;;;;20.38;15.80;;;;;;;;;;6160996;28;20074;-71
2021/03/12 14:31:46;;;;;;;27.40;16.77;;;;;;;;;;6152772;28;20050;-73
2021/03/12 14:34:49;;;;;;;28.45;15.52;;;;;;;;;;6160870;28;20505;-73
2021/03/12 14:37:51;;;;;;;21.20;14.60;;;;;;;;;;6166255;28;20129;-71
2021/03/12 14:40:54;;;;;;;23.73;16.30;;;;;;;;;;6167179;28;20054;-73
2021/03/12 14:43:55;;;;;;;22.48;15.95;;;;;;;;;;6169127;28;20046;-72
2021/03/12 14:46:58;;;;;;;22.20;16.33;;;;;;;;;;6169726;28;20058;-75
2021/03/12 14:49:59;;;;;;;18.27;14.77;;;;;;;;;;6164818;28;20042;-71
2021/03/12 14:53:02;;;;;;;20.10;13.85;;;;;;;;;;6165657;28;20070;-75
2021/03/12 14:56:04;;;;;;;18.77;15.20;;;;;;;;;;6166268;28;20051;-73
2021/03/12 14:59:06;;;;;;;21.95;15.38;;;;;;;;;;6167041;28;20050;-73
2021/03/12 15:02:07;;;;;;;26.90;15.20;;;;;;;;;;6166267;28;20069;-72
2021/03/12 15:05:10;;;;;;;21.75;14.70;;;;;;;;;;6156472;28;20043;-73
2021/03/12 15:08:12;;;;;;;26.57;14.80;;;;;;;;;;6164758;28;20129;-71
2021/03/12 15:11:13;;;;;;;27.23;14.73;;;;;;;;;;6158294;28;20055;-71
2021/03/12 15:14:16;;;;;;;16.17;13.65;;;;;;;;;;6157244;28;20147;-71
2021/03/12 15:17:18;;;;;;;23.05;14.23;;;;;;;;;;6156232;28;20526;-75
2021/03/12 15:20:20;;;;;;;18.88;14.43;;;;;;;;;;6160581;28;20047;-72
2021/03/12 15:23:22;;;;;;;23.40;15.90;;;;;;;;;;6170292;28;20153;-75
2021/03/12 15:26:24;;;;;;;21.15;16.45;;;;;;;;;;6166894;28;20047;-72
2021/03/12 15:29:25;;;;;;;28.33;17.65;;;;;;;;;;6164761;28;20246;-76
2021/03/12 15:32:27;;;;;;;23.58;17.70;;;;;;;;;;6169118;28;20082;-74
2021/03/12 15:35:29;;;;;;;26.15;18.20;;;;;;;;;;6151703;28;20055;-73
2021/03/12 15:38:31;;;;;;;23.95;16.95;;;;;;;;;;6157127;28;20046;-73
2021/03/12 15:41:32;;;;;;;30.08;17.38;;;;;;;;;;6161764;28;20146;-71
2021/03/12 15:44:33;;;;;;;21.80;17.33;;;;;;;;;;6167446;28;20046;-72
2021/03/12 15:47:35;;;;;;;27.23;19.20;;;;;;;;;;6160848;28;20054;-71
2021/03/12 15:50:36;;;;;;;26.50;17.42;;;;;;;;;;6159811;28;20057;-72
2021/03/12 15:53:38;;;;;;;25.83;18.63;;;;;;;;;;6167299;28;20715;-73
2021/03/12 15:56:39;;;;;;;29.90;18.20;;;;;;;;;;6165307;28;20386;-70
2021/03/12 15:59:41;;;;;;;24.67;18.17;;;;;;;;;;6167751;28;20481;-72
2021/03/12 16:02:42;;;;;;;30.08;18.98;;;;;;;;;;6170457;28;20078;-72
2021/03/12 16:05:43;;;;;;;29.75;17.92;;;;;;;;;;6167888;28;20485;-71
2021/03/12 16:08:46;;;;;;;28.13;18.73;;;;;;;;;;6165559;28;20090;-72
2021/03/12 16:11:47;;;;;;;29.23;20.77;;;;;;;;;;6162885;28;20051;-72
2021/03/12 16:14:48;;;;;;;28.45;20.60;;;;;;;;;;6166794;28;20101;-74
2021/03/12 16:17:49;;;;;;;29.92;20.85;;;;;;;;;;6171157;28;20145;-70
2021/03/12 16:20:51;;;;;;;27.48;21.42;;;;;;;;;;6171400;28;20088;-73
2021/03/12 16:23:53;;;;;;;33.13;22.15;;;;;;;;;;6168018;28;20050;-71
2021/03/12 16:26:56;;;;;;;30.67;22.52;;;;;;;;;;6166503;28;20081;-72
2021/03/12 16:29:57;;;;;;;32.13;23.30;;;;;;;;;;6166377;28;20716;-72
2021/03/12 16:32:59;;;;;;;36.88;23.48;;;;;;;;;;6167828;28;20185;-72
2021/03/12 16:36:00;;;;;;;28.33;21.55;;;;;;;;;;6168003;28;20129;-71
2021/03/12 16:39:02;;;;;;;26.65;20.73;;;;;;;;;;6168347;28;20505;-71
2021/03/12 16:42:05;;;;;;;31.58;21.92;;;;;;;;;;6168724;28;20059;-73
2021/03/12 16:45:07;;;;;;;33.80;22.05;;;;;;;;;;6165784;28;20050;-71
2021/03/12 16:48:11;;;;;;;34.55;23.83;;;;;;;;;;6166373;28;20130;-70
2021/03/12 16:51:14;;;;;;;30.63;23.50;;;;;;;;;;6166757;28;20069;-75
2021/03/12 16:54:17;;;;;;;34.50;23.38;;;;;;;;;;6174198;28;20055;-72
2021/03/12 16:57:18;;;;;;;32.00;22.25;;;;;;;;;;6172339;28;20050;-71
2021/03/12 17:00:21;;;;;;;34.40;23.27;;;;;;;;;;6145616;28;20042;-73
2021/03/12 17:03:22;;;;;;;35.72;22.05;;;;;;;;;;6163496;28;20138;-77
2021/03/12 17:06:27;;;;;;;32.60;22.42;;;;;;;;;;6160922;28;20066;-75
2021/03/12 17:09:30;;;;;;;37.90;23.05;;;;;;;;;;6159306;28;20062;-76
2021/03/12 17:12:32;;;;;;;37.10;25.77;;;;;;;;;;6161771;28;20360;-74
2021/03/12 17:15:34;;;;;;;39.58;22.75;;;;;;;;;;6160452;28;20082;-72
2021/03/12 17:18:35;;;;;;;35.50;24.15;;;;;;;;;;6157009;28;20047;-72
2021/03/12 17:21:36;;;;;;;33.72;23.85;;;;;;;;;;6163094;28;20058;-78
2021/03/12 17:24:38;;;;;;;35.10;22.95;;;;;;;;;;6161840;28;20047;-70
2021/03/12 17:27:41;;;;;;;32.60;21.70;;;;;;;;;;6165718;28;20047;-71
2021/03/12 17:30:42;;;;;;;30.17;20.85;;;;;;;;;;6162441;28;20054;-72
2021/03/12 17:33:44;;;;;;;32.08;22.33;;;;;;;;;;6162420;28;20051;-72
2021/03/12 17:36:45;;;;;;;34.53;24.73;;;;;;;;;;6163800;28;20137;-72
2021/03/12 17:39:47;;;;;;;37.78;22.52;;;;;;;;;;6166522;28;20093;-70
2021/03/12 17:42:48;;;;;;;33.35;22.60;;;;;;;;;;6149346;28;20058;-72